sensor_id;sensor_type;location;lat;lon;timestamp;P1;durP1;ratioP1;P2;durP2;ratioP2
16510;SDS011;8368;48.772;8.754;2022-12-29T00:02:03;2.13;;;2.00;;
16510;SDS011;8368;48.772;8.754;2022-12-29T00:04:29;2.33;;;2.13;;
16510;SDS011;8368;48.772;8.754;2022-12-29T00:06:54;2.40;;;2.20;;
16510;SDS011;8368;48.772;8.754;2022-12-29T00:09:21;2.13;;;2.03;;
16510;SDS011;8368;48.772;8.754;2022-12-29T00:11:47;2.53;;;2.37;;
16510;SDS011;8368;48.772;8.754;2022-12-29T00:14:13;2.50;;;2.30;;
16510;SDS011;8368;48.772;8.754;2022-12-29T00:16:57;3.07;;;1.83;;
16510;SDS011;8368;48.772;8.754;2022-12-29T00:19:23;2.10;;;2.00;;
16510;SDS011;8368;48.772;8.754;2022-12-29T00:22:08;4.30;;;2.27;;
16510;SDS011;8368;48.772;8.754;2022-12-29T00:24:54;2.20;;;2.10;;
16510;SDS011;8368;48.772;8.754;2022-12-29T00:27:38;4.67;;;2.20;;
16510;SDS011;8368;48.772;8.754;2022-12-29T00:30:23;2.00;;;1.90;;
16510;SDS011;8368;48.772;8.754;2022-12-29T00:33:14;2.40;;;2.20;;
16510;SDS011;8368;48.772;8.754;2022-12-29T00:36:01;1.93;;;1.70;;
16510;SDS011;8368;48.772;8.754;2022-12-29T00:39:19;2.10;;;2.00;;
16510;SDS011;8368;48.772;8.754;2022-12-29T00:42:08;2.00;;;1.80;;
16510;SDS011;8368;48.772;8.754;2022-12-29T00:44:52;3.03;;;2.00;;
16510;SDS011;8368;48.772;8.754;2022-12-29T00:47:18;2.00;;;1.63;;
16510;SDS011;8368;48.772;8.754;2022-12-29T00:49:43;3.90;;;2.00;;
16510;SDS011;8368;48.772;8.754;2022-12-29T00:52:12;1.90;;;1.53;;
16510;SDS011;8368;48.772;8.754;2022-12-29T00:54:39;2.83;;;1.73;;
16510;SDS011;8368;48.772;8.754;2022-12-29T00:57:06;1.90;;;1.80;;
16510;SDS011;8368;48.772;8.754;2022-12-29T00:59:35;2.13;;;1.97;;
16510;SDS011;8368;48.772;8.754;2022-12-29T01:02:01;1.70;;;1.60;;
16510;SDS011;8368;48.772;8.754;2022-12-29T01:04:26;1.50;;;1.30;;
16510;SDS011;8368;48.772;8.754;2022-12-29T01:06:52;1.63;;;1.30;;
16510;SDS011;8368;48.772;8.754;2022-12-29T01:09:18;4.53;;;1.53;;
16510;SDS011;8368;48.772;8.754;2022-12-29T01:12:03;1.83;;;1.20;;
16510;SDS011;8368;48.772;8.754;2022-12-29T01:14:30;3.97;;;1.30;;
16510;SDS011;8368;48.772;8.754;2022-12-29T01:16:56;1.33;;;1.33;;
16510;SDS011;8368;48.772;8.754;2022-12-29T01:19:22;1.80;;;1.30;;
16510;SDS011;8368;48.772;8.754;2022-12-29T01:21:47;2.10;;;1.17;;
16510;SDS011;8368;48.772;8.754;2022-12-29T01:24:14;1.17;;;1.10;;
16510;SDS011;8368;48.772;8.754;2022-12-29T01:26:41;1.07;;;1.03;;
16510;SDS011;8368;48.772;8.754;2022-12-29T01:29:06;2.93;;;1.30;;
16510;SDS011;8368;48.772;8.754;2022-12-29T01:31:32;2.10;;;1.03;;
16510;SDS011;8368;48.772;8.754;2022-12-29T01:33:58;2.23;;;1.10;;
16510;SDS011;8368;48.772;8.754;2022-12-29T01:36:23;1.90;;;1.20;;
16510;SDS011;8368;48.772;8.754;2022-12-29T01:38:50;2.20;;;1.20;;
16510;SDS011;8368;48.772;8.754;2022-12-29T01:41:15;1.30;;;1.10;;
16510;SDS011;8368;48.772;8.754;2022-12-29T01:43:54;3.73;;;1.27;;
16510;SDS011;8368;48.772;8.754;2022-12-29T01:49:13;2.60;;;1.13;;
16510;SDS011;8368;48.772;8.754;2022-12-29T01:56:51;1.10;;;1.10;;
16510;SDS011;8368;48.772;8.754;2022-12-29T01:59:20;1.30;;;1.00;;
16510;SDS011;8368;48.772;8.754;2022-12-29T02:01:51;1.00;;;0.90;;
16510;SDS011;8368;48.772;8.754;2022-12-29T02:04:16;2.00;;;1.10;;
16510;SDS011;8368;48.772;8.754;2022-12-29T02:06:53;2.20;;;1.17;;
16510;SDS011;8368;48.772;8.754;2022-12-29T02:09:22;1.10;;;1.10;;
16510;SDS011;8368;48.772;8.754;2022-12-29T02:11:48;2.87;;;1.20;;
16510;SDS011;8368;48.772;8.754;2022-12-29T02:14:14;3.37;;;1.20;;
16510;SDS011;8368;48.772;8.754;2022-12-29T02:22:51;0.97;;;0.97;;
16510;SDS011;8368;48.772;8.754;2022-12-29T02:25:45;3.07;;;1.27;;
16510;SDS011;8368;48.772;8.754;2022-12-29T02:35:10;0.70;;;0.70;;
16510;SDS011;8368;48.772;8.754;2022-12-29T02:37:30;2.47;;;1.10;;
16510;SDS011;8368;48.772;8.754;2022-12-29T02:46:00;3.17;;;0.90;;
16510;SDS011;8368;48.772;8.754;2022-12-29T02:51:35;2.00;;;1.20;;
16510;SDS011;8368;48.772;8.754;2022-12-29T02:54:23;1.03;;;1.03;;
16510;SDS011;8368;48.772;8.754;2022-12-29T02:57:08;1.33;;;1.20;;
16510;SDS011;8368;48.772;8.754;2022-12-29T02:59:44;2.20;;;0.90;;
16510;SDS011;8368;48.772;8.754;2022-12-29T03:07:58;3.23;;;1.23;;
16510;SDS011;8368;48.772;8.754;2022-12-29T03:10:55;1.77;;;1.17;;
16510;SDS011;8368;48.772;8.754;2022-12-29T03:13:52;0.97;;;0.97;;
16510;SDS011;8368;48.772;8.754;2022-12-29T03:17:03;1.00;;;1.00;;
16510;SDS011;8368;48.772;8.754;2022-12-29T03:19:35;3.10;;;1.30;;
16510;SDS011;8368;48.772;8.754;2022-12-29T03:22:10;1.27;;;1.17;;
16510;SDS011;8368;48.772;8.754;2022-12-29T03:27:31;2.00;;;1.10;;
16510;SDS011;8368;48.772;8.754;2022-12-29T03:30:02;1.10;;;1.10;;
16510;SDS011;8368;48.772;8.754;2022-12-29T03:32:36;1.33;;;1.30;;
16510;SDS011;8368;48.772;8.754;2022-12-29T03:35:07;2.20;;;1.03;;
16510;SDS011;8368;48.772;8.754;2022-12-29T03:37:36;1.13;;;0.93;;
16510;SDS011;8368;48.772;8.754;2022-12-29T03:40:05;1.13;;;1.07;;
16510;SDS011;8368;48.772;8.754;2022-12-29T03:42:32;1.33;;;0.90;;
16510;SDS011;8368;48.772;8.754;2022-12-29T03:45:00;1.23;;;1.10;;
16510;SDS011;8368;48.772;8.754;2022-12-29T03:47:26;1.50;;;1.13;;
16510;SDS011;8368;48.772;8.754;2022-12-29T03:49:52;1.23;;;1.13;;
16510;SDS011;8368;48.772;8.754;2022-12-29T03:52:18;1.43;;;1.23;;
16510;SDS011;8368;48.772;8.754;2022-12-29T03:54:44;1.00;;;1.00;;
16510;SDS011;8368;48.772;8.754;2022-12-29T03:57:10;1.90;;;1.10;;
16510;SDS011;8368;48.772;8.754;2022-12-29T03:59:36;0.90;;;0.90;;
16510;SDS011;8368;48.772;8.754;2022-12-29T04:02:02;2.00;;;1.07;;
16510;SDS011;8368;48.772;8.754;2022-12-29T04:04:27;1.50;;;1.07;;
16510;SDS011;8368;48.772;8.754;2022-12-29T04:06:53;2.27;;;1.10;;
16510;SDS011;8368;48.772;8.754;2022-12-29T04:09:19;4.13;;;1.20;;
16510;SDS011;8368;48.772;8.754;2022-12-29T04:11:44;1.77;;;1.30;;
16510;SDS011;8368;48.772;8.754;2022-12-29T04:14:10;1.20;;;1.20;;
16510;SDS011;8368;48.772;8.754;2022-12-29T04:16:35;1.33;;;1.20;;
16510;SDS011;8368;48.772;8.754;2022-12-29T04:19:03;2.47;;;1.20;;
16510;SDS011;8368;48.772;8.754;2022-12-29T04:21:29;1.23;;;1.20;;
16510;SDS011;8368;48.772;8.754;2022-12-29T04:23:55;1.30;;;1.20;;
16510;SDS011;8368;48.772;8.754;2022-12-29T04:26:20;1.10;;;1.10;;
16510;SDS011;8368;48.772;8.754;2022-12-29T04:28:46;1.20;;;1.20;;
16510;SDS011;8368;48.772;8.754;2022-12-29T04:31:11;1.23;;;1.10;;
16510;SDS011;8368;48.772;8.754;2022-12-29T04:33:37;1.40;;;1.30;;
16510;SDS011;8368;48.772;8.754;2022-12-29T04:36:03;1.27;;;1.17;;
16510;SDS011;8368;48.772;8.754;2022-12-29T04:38:28;2.20;;;1.30;;
16510;SDS011;8368;48.772;8.754;2022-12-29T04:40:54;1.10;;;1.10;;
16510;SDS011;8368;48.772;8.754;2022-12-29T04:43:20;2.50;;;1.57;;
16510;SDS011;8368;48.772;8.754;2022-12-29T04:45:46;1.20;;;1.20;;
16510;SDS011;8368;48.772;8.754;2022-12-29T04:48:12;1.30;;;1.30;;
16510;SDS011;8368;48.772;8.754;2022-12-29T04:50:38;1.70;;;1.30;;
16510;SDS011;8368;48.772;8.754;2022-12-29T04:53:05;1.63;;;1.40;;
16510;SDS011;8368;48.772;8.754;2022-12-29T04:55:31;1.87;;;1.47;;
16510;SDS011;8368;48.772;8.754;2022-12-29T04:57:57;1.20;;;1.13;;
16510;SDS011;8368;48.772;8.754;2022-12-29T05:00:23;2.33;;;1.20;;
16510;SDS011;8368;48.772;8.754;2022-12-29T05:02:48;1.30;;;1.20;;
16510;SDS011;8368;48.772;8.754;2022-12-29T05:05:14;1.13;;;1.13;;
16510;SDS011;8368;48.772;8.754;2022-12-29T05:07:40;1.30;;;1.20;;
16510;SDS011;8368;48.772;8.754;2022-12-29T05:10:06;1.20;;;1.20;;
16510;SDS011;8368;48.772;8.754;2022-12-29T05:12:33;1.83;;;1.33;;
16510;SDS011;8368;48.772;8.754;2022-12-29T05:14:59;1.37;;;1.37;;
16510;SDS011;8368;48.772;8.754;2022-12-29T05:17:25;1.77;;;1.30;;
16510;SDS011;8368;48.772;8.754;2022-12-29T05:19:51;1.87;;;1.50;;
16510;SDS011;8368;48.772;8.754;2022-12-29T05:22:17;1.47;;;1.43;;
16510;SDS011;8368;48.772;8.754;2022-12-29T05:24:42;1.43;;;1.33;;
16510;SDS011;8368;48.772;8.754;2022-12-29T05:27:08;1.27;;;1.17;;
16510;SDS011;8368;48.772;8.754;2022-12-29T05:29:34;1.50;;;1.50;;
16510;SDS011;8368;48.772;8.754;2022-12-29T05:31:59;1.50;;;1.40;;
16510;SDS011;8368;48.772;8.754;2022-12-29T05:34:25;1.60;;;1.50;;
16510;SDS011;8368;48.772;8.754;2022-12-29T05:36:50;1.27;;;1.20;;
16510;SDS011;8368;48.772;8.754;2022-12-29T05:39:17;1.30;;;1.30;;
16510;SDS011;8368;48.772;8.754;2022-12-29T05:41:43;2.17;;;1.37;;
16510;SDS011;8368;48.772;8.754;2022-12-29T05:44:09;1.70;;;1.57;;
16510;SDS011;8368;48.772;8.754;2022-12-29T05:46:35;1.57;;;1.40;;
16510;SDS011;8368;48.772;8.754;2022-12-29T05:49:01;2.20;;;1.50;;
16510;SDS011;8368;48.772;8.754;2022-12-29T05:51:26;1.40;;;1.30;;
16510;SDS011;8368;48.772;8.754;2022-12-29T05:53:52;1.77;;;1.43;;
16510;SDS011;8368;48.772;8.754;2022-12-29T05:56:18;1.50;;;1.40;;
16510;SDS011;8368;48.772;8.754;2022-12-29T05:58:43;2.23;;;1.60;;
16510;SDS011;8368;48.772;8.754;2022-12-29T06:01:09;2.03;;;1.87;;
16510;SDS011;8368;48.772;8.754;2022-12-29T06:03:34;2.10;;;2.00;;
16510;SDS011;8368;48.772;8.754;2022-12-29T06:06:00;2.50;;;1.80;;
16510;SDS011;8368;48.772;8.754;2022-12-29T06:08:25;1.90;;;1.77;;
16510;SDS011;8368;48.772;8.754;2022-12-29T06:10:51;2.03;;;1.93;;
16510;SDS011;8368;48.772;8.754;2022-12-29T06:13:16;2.20;;;1.67;;
16510;SDS011;8368;48.772;8.754;2022-12-29T06:15:42;3.10;;;1.60;;
16510;SDS011;8368;48.772;8.754;2022-12-29T06:18:07;2.60;;;1.70;;
16510;SDS011;8368;48.772;8.754;2022-12-29T06:20:33;2.37;;;2.13;;
16510;SDS011;8368;48.772;8.754;2022-12-29T06:22:59;2.07;;;1.97;;
16510;SDS011;8368;48.772;8.754;2022-12-29T06:25:25;1.50;;;1.50;;
16510;SDS011;8368;48.772;8.754;2022-12-29T06:27:51;3.77;;;2.30;;
16510;SDS011;8368;48.772;8.754;2022-12-29T06:30:16;2.67;;;2.23;;
16510;SDS011;8368;48.772;8.754;2022-12-29T06:32:42;2.80;;;2.60;;
16510;SDS011;8368;48.772;8.754;2022-12-29T06:35:08;2.50;;;2.30;;
16510;SDS011;8368;48.772;8.754;2022-12-29T06:37:34;2.30;;;2.20;;
16510;SDS011;8368;48.772;8.754;2022-12-29T06:40:00;1.60;;;1.50;;
16510;SDS011;8368;48.772;8.754;2022-12-29T06:42:26;1.93;;;1.83;;
16510;SDS011;8368;48.772;8.754;2022-12-29T06:44:52;2.13;;;2.03;;
16510;SDS011;8368;48.772;8.754;2022-12-29T06:47:18;2.13;;;2.03;;
16510;SDS011;8368;48.772;8.754;2022-12-29T06:49:43;2.50;;;1.70;;
16510;SDS011;8368;48.772;8.754;2022-12-29T06:52:09;2.80;;;1.50;;
16510;SDS011;8368;48.772;8.754;2022-12-29T06:54:35;2.37;;;1.97;;
16510;SDS011;8368;48.772;8.754;2022-12-29T06:57:00;2.40;;;2.20;;
16510;SDS011;8368;48.772;8.754;2022-12-29T06:59:26;2.40;;;1.97;;
16510;SDS011;8368;48.772;8.754;2022-12-29T07:01:51;2.50;;;1.90;;
16510;SDS011;8368;48.772;8.754;2022-12-29T07:04:17;1.53;;;1.53;;
16510;SDS011;8368;48.772;8.754;2022-12-29T07:06:43;2.03;;;1.50;;
16510;SDS011;8368;48.772;8.754;2022-12-29T07:09:09;2.00;;;1.50;;
16510;SDS011;8368;48.772;8.754;2022-12-29T07:11:35;1.90;;;1.80;;
16510;SDS011;8368;48.772;8.754;2022-12-29T07:14:02;2.30;;;1.97;;
16510;SDS011;8368;48.772;8.754;2022-12-29T07:16:28;2.13;;;1.73;;
16510;SDS011;8368;48.772;8.754;2022-12-29T07:18:55;1.97;;;1.87;;
16510;SDS011;8368;48.772;8.754;2022-12-29T07:21:21;3.13;;;1.90;;
16510;SDS011;8368;48.772;8.754;2022-12-29T07:23:47;2.20;;;1.80;;
16510;SDS011;8368;48.772;8.754;2022-12-29T07:26:13;2.60;;;2.30;;
16510;SDS011;8368;48.772;8.754;2022-12-29T07:28:40;4.30;;;2.00;;
16510;SDS011;8368;48.772;8.754;2022-12-29T07:31:07;1.67;;;1.57;;
16510;SDS011;8368;48.772;8.754;2022-12-29T07:33:40;3.30;;;1.70;;
16510;SDS011;8368;48.772;8.754;2022-12-29T07:36:06;4.73;;;2.03;;
16510;SDS011;8368;48.772;8.754;2022-12-29T07:38:32;1.87;;;1.77;;
16510;SDS011;8368;48.772;8.754;2022-12-29T07:40:57;1.93;;;1.70;;
16510;SDS011;8368;48.772;8.754;2022-12-29T07:43:23;2.13;;;1.80;;
16510;SDS011;8368;48.772;8.754;2022-12-29T07:45:49;2.00;;;1.80;;
16510;SDS011;8368;48.772;8.754;2022-12-29T07:48:14;4.33;;;1.77;;
16510;SDS011;8368;48.772;8.754;2022-12-29T07:50:40;2.93;;;2.30;;
16510;SDS011;8368;48.772;8.754;2022-12-29T07:53:05;2.70;;;2.50;;
16510;SDS011;8368;48.772;8.754;2022-12-29T07:55:31;2.20;;;2.10;;
16510;SDS011;8368;48.772;8.754;2022-12-29T07:57:56;4.47;;;2.90;;
16510;SDS011;8368;48.772;8.754;2022-12-29T08:00:22;2.33;;;2.20;;
16510;SDS011;8368;48.772;8.754;2022-12-29T08:02:48;3.57;;;1.97;;
16510;SDS011;8368;48.772;8.754;2022-12-29T08:05:14;1.67;;;1.57;;
16510;SDS011;8368;48.772;8.754;2022-12-29T08:07:40;1.73;;;1.63;;
16510;SDS011;8368;48.772;8.754;2022-12-29T08:10:08;5.13;;;2.00;;
16510;SDS011;8368;48.772;8.754;2022-12-29T08:12:34;2.10;;;1.93;;
16510;SDS011;8368;48.772;8.754;2022-12-29T08:15:00;1.40;;;1.40;;
16510;SDS011;8368;48.772;8.754;2022-12-29T08:17:25;2.03;;;1.93;;
16510;SDS011;8368;48.772;8.754;2022-12-29T08:19:51;2.00;;;1.40;;
16510;SDS011;8368;48.772;8.754;2022-12-29T08:22:16;1.70;;;1.60;;
16510;SDS011;8368;48.772;8.754;2022-12-29T08:24:42;2.07;;;1.80;;
16510;SDS011;8368;48.772;8.754;2022-12-29T08:27:07;3.33;;;2.43;;
16510;SDS011;8368;48.772;8.754;2022-12-29T08:29:33;1.70;;;1.60;;
16510;SDS011;8368;48.772;8.754;2022-12-29T08:31:58;3.67;;;1.80;;
16510;SDS011;8368;48.772;8.754;2022-12-29T08:34:24;2.27;;;1.90;;
16510;SDS011;8368;48.772;8.754;2022-12-29T08:36:49;2.83;;;1.80;;
16510;SDS011;8368;48.772;8.754;2022-12-29T08:39:15;1.30;;;1.30;;
16510;SDS011;8368;48.772;8.754;2022-12-29T08:41:40;1.50;;;1.40;;
16510;SDS011;8368;48.772;8.754;2022-12-29T08:44:06;1.60;;;1.50;;
16510;SDS011;8368;48.772;8.754;2022-12-29T08:46:32;2.63;;;1.73;;
16510;SDS011;8368;48.772;8.754;2022-12-29T08:48:58;1.60;;;1.53;;
16510;SDS011;8368;48.772;8.754;2022-12-29T08:51:23;1.33;;;1.33;;
16510;SDS011;8368;48.772;8.754;2022-12-29T08:53:49;3.60;;;1.50;;
16510;SDS011;8368;48.772;8.754;2022-12-29T08:56:15;1.77;;;1.67;;
16510;SDS011;8368;48.772;8.754;2022-12-29T08:58:41;2.23;;;1.70;;
16510;SDS011;8368;48.772;8.754;2022-12-29T09:01:06;1.20;;;1.20;;
16510;SDS011;8368;48.772;8.754;2022-12-29T09:03:34;2.70;;;1.70;;
16510;SDS011;8368;48.772;8.754;2022-12-29T09:06:00;1.87;;;1.60;;
16510;SDS011;8368;48.772;8.754;2022-12-29T09:08:25;1.57;;;1.47;;
16510;SDS011;8368;48.772;8.754;2022-12-29T09:10:51;1.53;;;1.43;;
16510;SDS011;8368;48.772;8.754;2022-12-29T09:13:17;1.40;;;1.30;;
16510;SDS011;8368;48.772;8.754;2022-12-29T09:15:43;1.30;;;1.30;;
16510;SDS011;8368;48.772;8.754;2022-12-29T09:18:09;1.30;;;1.30;;
16510;SDS011;8368;48.772;8.754;2022-12-29T09:20:36;1.17;;;1.13;;
16510;SDS011;8368;48.772;8.754;2022-12-29T09:23:02;1.63;;;1.53;;
16510;SDS011;8368;48.772;8.754;2022-12-29T09:25:28;1.47;;;1.30;;
16510;SDS011;8368;48.772;8.754;2022-12-29T09:27:54;4.37;;;1.50;;
16510;SDS011;8368;48.772;8.754;2022-12-29T09:30:20;1.40;;;1.30;;
16510;SDS011;8368;48.772;8.754;2022-12-29T09:32:47;2.97;;;1.50;;
16510;SDS011;8368;48.772;8.754;2022-12-29T09:35:13;1.47;;;1.40;;
16510;SDS011;8368;48.772;8.754;2022-12-29T09:37:40;1.50;;;1.40;;
16510;SDS011;8368;48.772;8.754;2022-12-29T09:40:06;1.70;;;1.33;;
16510;SDS011;8368;48.772;8.754;2022-12-29T09:42:44;1.40;;;1.30;;
16510;SDS011;8368;48.772;8.754;2022-12-29T09:45:23;3.17;;;1.33;;
16510;SDS011;8368;48.772;8.754;2022-12-29T09:47:57;1.70;;;1.30;;
16510;SDS011;8368;48.772;8.754;2022-12-29T09:55:41;2.43;;;1.73;;
16510;SDS011;8368;48.772;8.754;2022-12-29T09:58:22;1.63;;;1.20;;
16510;SDS011;8368;48.772;8.754;2022-12-29T10:01:05;1.47;;;1.37;;
16510;SDS011;8368;48.772;8.754;2022-12-29T10:03:45;1.20;;;1.20;;
16510;SDS011;8368;48.772;8.754;2022-12-29T10:06:22;3.83;;;1.43;;
16510;SDS011;8368;48.772;8.754;2022-12-29T10:11:56;2.13;;;1.30;;
16510;SDS011;8368;48.772;8.754;2022-12-29T10:24:49;1.50;;;1.40;;
16510;SDS011;8368;48.772;8.754;2022-12-29T10:27:18;1.70;;;1.60;;
16510;SDS011;8368;48.772;8.754;2022-12-29T10:29:45;2.67;;;1.40;;
16510;SDS011;8368;48.772;8.754;2022-12-29T10:32:25;4.60;;;2.00;;
16510;SDS011;8368;48.772;8.754;2022-12-29T10:34:58;1.50;;;1.40;;
16510;SDS011;8368;48.772;8.754;2022-12-29T10:45:49;2.47;;;1.60;;
16510;SDS011;8368;48.772;8.754;2022-12-29T10:48:20;1.63;;;1.53;;
16510;SDS011;8368;48.772;8.754;2022-12-29T10:50:49;1.67;;;1.50;;
16510;SDS011;8368;48.772;8.754;2022-12-29T10:53:22;1.50;;;1.40;;
16510;SDS011;8368;48.772;8.754;2022-12-29T10:55:51;2.03;;;1.70;;
16510;SDS011;8368;48.772;8.754;2022-12-29T10:58:18;2.13;;;1.40;;
16510;SDS011;8368;48.772;8.754;2022-12-29T11:00:49;1.50;;;1.40;;
16510;SDS011;8368;48.772;8.754;2022-12-29T11:06:25;1.27;;;1.27;;
16510;SDS011;8368;48.772;8.754;2022-12-29T11:11:25;1.60;;;1.47;;
16510;SDS011;8368;48.772;8.754;2022-12-29T11:14:14;1.77;;;1.13;;
16510;SDS011;8368;48.772;8.754;2022-12-29T11:16:43;1.87;;;1.00;;
16510;SDS011;8368;48.772;8.754;2022-12-29T11:19:22;2.30;;;1.00;;
16510;SDS011;8368;48.772;8.754;2022-12-29T11:21:51;2.10;;;1.00;;
16510;SDS011;8368;48.772;8.754;2022-12-29T11:24:24;0.60;;;0.60;;
16510;SDS011;8368;48.772;8.754;2022-12-29T11:26:52;1.90;;;0.93;;
16510;SDS011;8368;48.772;8.754;2022-12-29T11:31:55;0.87;;;0.87;;
16510;SDS011;8368;48.772;8.754;2022-12-29T11:36:51;1.03;;;1.00;;
16510;SDS011;8368;48.772;8.754;2022-12-29T11:39:26;1.77;;;1.13;;
16510;SDS011;8368;48.772;8.754;2022-12-29T11:41:55;0.73;;;0.73;;
16510;SDS011;8368;48.772;8.754;2022-12-29T11:44:22;0.97;;;0.80;;
16510;SDS011;8368;48.772;8.754;2022-12-29T11:46:48;0.77;;;0.77;;
16510;SDS011;8368;48.772;8.754;2022-12-29T11:49:23;0.97;;;0.97;;
16510;SDS011;8368;48.772;8.754;2022-12-29T11:51:51;3.63;;;1.07;;
16510;SDS011;8368;48.772;8.754;2022-12-29T11:54:41;1.70;;;1.17;;
16510;SDS011;8368;48.772;8.754;2022-12-29T11:57:11;1.47;;;1.37;;
16510;SDS011;8368;48.772;8.754;2022-12-29T11:59:41;2.47;;;1.07;;
16510;SDS011;8368;48.772;8.754;2022-12-29T12:02:54;1.83;;;1.70;;
16510;SDS011;8368;48.772;8.754;2022-12-29T12:07:59;1.50;;;1.30;;
16510;SDS011;8368;48.772;8.754;2022-12-29T12:10:44;1.50;;;1.40;;
16510;SDS011;8368;48.772;8.754;2022-12-29T12:13:50;1.30;;;1.20;;
16510;SDS011;8368;48.772;8.754;2022-12-29T12:16:27;2.27;;;1.33;;
16510;SDS011;8368;48.772;8.754;2022-12-29T12:19:02;1.70;;;1.60;;
16510;SDS011;8368;48.772;8.754;2022-12-29T12:21:41;1.10;;;1.10;;
16510;SDS011;8368;48.772;8.754;2022-12-29T12:24:15;1.30;;;1.30;;
16510;SDS011;8368;48.772;8.754;2022-12-29T12:26:58;1.03;;;1.03;;
16510;SDS011;8368;48.772;8.754;2022-12-29T12:32:11;1.57;;;1.47;;
16510;SDS011;8368;48.772;8.754;2022-12-29T12:34:44;1.07;;;0.97;;
16510;SDS011;8368;48.772;8.754;2022-12-29T12:43:33;1.20;;;1.20;;
16510;SDS011;8368;48.772;8.754;2022-12-29T12:46:10;1.17;;;1.10;;
16510;SDS011;8368;48.772;8.754;2022-12-29T12:49:30;3.10;;;1.43;;
16510;SDS011;8368;48.772;8.754;2022-12-29T13:00:30;1.47;;;1.37;;
16510;SDS011;8368;48.772;8.754;2022-12-29T13:06:15;1.33;;;1.33;;
16510;SDS011;8368;48.772;8.754;2022-12-29T13:14:15;2.03;;;0.93;;
16510;SDS011;8368;48.772;8.754;2022-12-29T13:16:53;0.90;;;0.90;;
16510;SDS011;8368;48.772;8.754;2022-12-29T13:19:46;1.07;;;1.07;;
16510;SDS011;8368;48.772;8.754;2022-12-29T13:22:25;1.87;;;1.20;;
16510;SDS011;8368;48.772;8.754;2022-12-29T13:25:16;1.53;;;1.43;;
16510;SDS011;8368;48.772;8.754;2022-12-29T13:30:39;3.00;;;1.53;;
16510;SDS011;8368;48.772;8.754;2022-12-29T13:36:00;4.20;;;2.33;;
16510;SDS011;8368;48.772;8.754;2022-12-29T13:38:44;2.27;;;2.17;;
16510;SDS011;8368;48.772;8.754;2022-12-29T13:41:25;2.77;;;2.43;;
16510;SDS011;8368;48.772;8.754;2022-12-29T13:44:01;1.20;;;1.17;;
16510;SDS011;8368;48.772;8.754;2022-12-29T13:46:29;5.10;;;1.67;;
16510;SDS011;8368;48.772;8.754;2022-12-29T13:49:22;1.40;;;1.30;;
16510;SDS011;8368;48.772;8.754;2022-12-29T13:51:50;2.00;;;1.90;;
16510;SDS011;8368;48.772;8.754;2022-12-29T14:05:03;11.10;;;7.77;;
16510;SDS011;8368;48.772;8.754;2022-12-29T14:07:41;3.53;;;2.20;;
16510;SDS011;8368;48.772;8.754;2022-12-29T14:10:18;3.70;;;3.10;;
16510;SDS011;8368;48.772;8.754;2022-12-29T14:12:59;5.70;;;3.53;;
16510;SDS011;8368;48.772;8.754;2022-12-29T14:15:38;2.63;;;2.07;;
16510;SDS011;8368;48.772;8.754;2022-12-29T14:18:25;5.23;;;3.70;;
16510;SDS011;8368;48.772;8.754;2022-12-29T14:20:57;3.13;;;2.43;;
16510;SDS011;8368;48.772;8.754;2022-12-29T14:23:27;4.80;;;2.70;;
16510;SDS011;8368;48.772;8.754;2022-12-29T14:33:39;2.53;;;2.33;;
16510;SDS011;8368;48.772;8.754;2022-12-29T14:38:51;2.70;;;2.30;;
16510;SDS011;8368;48.772;8.754;2022-12-29T14:41:24;12.00;;;6.87;;
16510;SDS011;8368;48.772;8.754;2022-12-29T14:46:42;46.57;;;19.37;;
16510;SDS011;8368;48.772;8.754;2022-12-29T14:49:14;6.50;;;3.63;;
16510;SDS011;8368;48.772;8.754;2022-12-29T14:51:43;15.20;;;7.67;;
16510;SDS011;8368;48.772;8.754;2022-12-29T14:56:59;103.73;;;31.50;;
16510;SDS011;8368;48.772;8.754;2022-12-29T14:59:28;108.77;;;32.87;;
16510;SDS011;8368;48.772;8.754;2022-12-29T15:01:55;10.33;;;7.00;;
16510;SDS011;8368;48.772;8.754;2022-12-29T15:06:50;7.10;;;4.17;;
16510;SDS011;8368;48.772;8.754;2022-12-29T15:09:24;4.13;;;3.87;;
16510;SDS011;8368;48.772;8.754;2022-12-29T15:12:21;2.23;;;2.13;;
16510;SDS011;8368;48.772;8.754;2022-12-29T15:14:56;2.63;;;2.00;;
16510;SDS011;8368;48.772;8.754;2022-12-29T15:17:27;3.00;;;1.57;;
16510;SDS011;8368;48.772;8.754;2022-12-29T15:19:55;0.90;;;0.87;;
16510;SDS011;8368;48.772;8.754;2022-12-29T15:22:21;0.90;;;0.90;;
16510;SDS011;8368;48.772;8.754;2022-12-29T15:24:49;0.70;;;0.70;;
16510;SDS011;8368;48.772;8.754;2022-12-29T15:27:18;0.50;;;0.50;;
16510;SDS011;8368;48.772;8.754;2022-12-29T15:29:46;2.03;;;0.60;;
16510;SDS011;8368;48.772;8.754;2022-12-29T15:34:41;0.80;;;0.80;;
16510;SDS011;8368;48.772;8.754;2022-12-29T15:37:21;0.73;;;0.73;;
16510;SDS011;8368;48.772;8.754;2022-12-29T15:39:52;0.60;;;0.60;;
16510;SDS011;8368;48.772;8.754;2022-12-29T15:45:05;2.83;;;1.00;;
16510;SDS011;8368;48.772;8.754;2022-12-29T15:47:34;1.50;;;0.70;;
16510;SDS011;8368;48.772;8.754;2022-12-29T15:50:04;1.23;;;1.00;;
16510;SDS011;8368;48.772;8.754;2022-12-29T15:52:32;1.10;;;1.00;;
16510;SDS011;8368;48.772;8.754;2022-12-29T15:54:58;1.37;;;0.87;;
16510;SDS011;8368;48.772;8.754;2022-12-29T15:57:27;0.80;;;0.80;;
16510;SDS011;8368;48.772;8.754;2022-12-29T16:00:03;0.90;;;0.90;;
16510;SDS011;8368;48.772;8.754;2022-12-29T16:02:29;0.90;;;0.70;;
16510;SDS011;8368;48.772;8.754;2022-12-29T16:04:55;0.67;;;0.67;;
16510;SDS011;8368;48.772;8.754;2022-12-29T16:07:26;0.83;;;0.83;;
16510;SDS011;8368;48.772;8.754;2022-12-29T16:09:54;0.60;;;0.60;;
16510;SDS011;8368;48.772;8.754;2022-12-29T16:12:26;0.60;;;0.60;;
16510;SDS011;8368;48.772;8.754;2022-12-29T16:14:57;1.00;;;0.80;;
16510;SDS011;8368;48.772;8.754;2022-12-29T16:17:29;1.00;;;1.00;;
16510;SDS011;8368;48.772;8.754;2022-12-29T16:20:04;0.50;;;0.50;;
16510;SDS011;8368;48.772;8.754;2022-12-29T16:22:41;0.40;;;0.40;;
16510;SDS011;8368;48.772;8.754;2022-12-29T16:27:47;1.57;;;1.50;;
16510;SDS011;8368;48.772;8.754;2022-12-29T16:30:20;1.27;;;1.27;;
16510;SDS011;8368;48.772;8.754;2022-12-29T16:32:47;2.83;;;2.40;;
16510;SDS011;8368;48.772;8.754;2022-12-29T16:35:21;6.50;;;4.83;;
16510;SDS011;8368;48.772;8.754;2022-12-29T16:38:06;19.40;;;11.17;;
16510;SDS011;8368;48.772;8.754;2022-12-29T16:40:50;6.03;;;4.73;;
16510;SDS011;8368;48.772;8.754;2022-12-29T16:43:26;3.77;;;3.40;;
16510;SDS011;8368;48.772;8.754;2022-12-29T16:48:18;13.07;;;6.97;;
16510;SDS011;8368;48.772;8.754;2022-12-29T16:50:46;4.23;;;3.30;;
16510;SDS011;8368;48.772;8.754;2022-12-29T16:53:27;6.00;;;4.30;;
16510;SDS011;8368;48.772;8.754;2022-12-29T16:55:56;8.30;;;4.80;;
16510;SDS011;8368;48.772;8.754;2022-12-29T16:58:27;5.40;;;3.80;;
16510;SDS011;8368;48.772;8.754;2022-12-29T17:00:56;5.27;;;4.20;;
16510;SDS011;8368;48.772;8.754;2022-12-29T17:03:26;4.50;;;4.10;;
16510;SDS011;8368;48.772;8.754;2022-12-29T17:05:58;5.80;;;2.83;;
16510;SDS011;8368;48.772;8.754;2022-12-29T17:08:23;6.80;;;5.47;;
16510;SDS011;8368;48.772;8.754;2022-12-29T17:10:51;12.10;;;7.43;;
16510;SDS011;8368;48.772;8.754;2022-12-29T17:13:38;7.33;;;6.63;;
16510;SDS011;8368;48.772;8.754;2022-12-29T17:16:07;5.97;;;4.97;;
16510;SDS011;8368;48.772;8.754;2022-12-29T17:18:35;5.40;;;4.90;;
16510;SDS011;8368;48.772;8.754;2022-12-29T17:21:01;6.47;;;5.83;;
16510;SDS011;8368;48.772;8.754;2022-12-29T17:23:27;9.40;;;7.80;;
16510;SDS011;8368;48.772;8.754;2022-12-29T17:25:54;7.47;;;6.77;;
16510;SDS011;8368;48.772;8.754;2022-12-29T17:28:21;4.47;;;4.17;;
16510;SDS011;8368;48.772;8.754;2022-12-29T17:30:49;3.00;;;2.70;;
16510;SDS011;8368;48.772;8.754;2022-12-29T17:33:23;2.23;;;2.13;;
16510;SDS011;8368;48.772;8.754;2022-12-29T17:35:48;0.90;;;0.90;;
16510;SDS011;8368;48.772;8.754;2022-12-29T17:38:21;0.60;;;0.50;;
16510;SDS011;8368;48.772;8.754;2022-12-29T17:40:52;0.60;;;0.60;;
16510;SDS011;8368;48.772;8.754;2022-12-29T17:43:17;0.90;;;0.90;;
16510;SDS011;8368;48.772;8.754;2022-12-29T17:45:44;2.10;;;2.00;;
16510;SDS011;8368;48.772;8.754;2022-12-29T17:48:14;0.90;;;0.90;;
16510;SDS011;8368;48.772;8.754;2022-12-29T17:50:41;0.50;;;0.50;;